Urb Biascochea, Puerto Rico
Current Conditions -  °F | °C
As of 9:56 PM on Friday 19 Dec 2014 (Local Time) from TJSJ Reporting Station
Scattered Clouds Scattered Clouds  
Wind Chill: 78°   Ceiling: Unl
Heat Index: 80°   Visibility: 10mi
Dew Point: 70°   Wind: 9mph
Humidity: 76%   Direction: 80°E
Pressure: 30.02"   Gusts: NA
Location:  18.4048°N, 65.9789°W
Report Text: TJSJ 200156Z 08008KT 10SM FEW030 SCT080 26/21 A3002 RMK AO2 SLP164 T02560211
Loading
Personal Weather Stations






























Interactive Weather Map New forecast layout! Learn more

10-Day Weather Forecast

Advertisements
Track Severe Weather on mobile